Time;durP1;ratioP1;P1;durP2;ratioP2;P2;SDS_P1;SDS_P2;PMS_P1;PMS_P2;Temp;Humidity;BMP_temperature;BMP_pressure;BME280_temperature;BME280_humidity;BME280_pressure;Samples;Min_cycle;Max_cycle;Signal;HPM_P1;HPM_P2
2021/10/13 00:00:09;;;;;;;;;;;282.30;2278.40;;;;;;5035147;28;19905;-82
2021/10/13 00:02:35;;;;;;;;;;;282.30;2278.40;;;;;;5035382;28;19909;-83
2021/10/13 00:05:00;;;;;;;;;;;282.20;2278.40;;;;;;5069394;28;19940;-83
2021/10/13 00:07:26;;;;;;;;;;;282.20;2278.40;;;;;;5068813;28;20261;-82
2021/10/13 00:09:52;;;;;;;;;;;282.20;2278.40;;;;;;5068083;28;19909;-83
2021/10/13 00:12:18;;;;;;;;;;;282.30;2278.40;;;;;;5051802;28;20413;-83
2021/10/13 00:14:44;;;;;;;;;;;282.20;2278.40;;;;;;5069052;28;19912;-83
2021/10/13 00:17:09;;;;;;;;;;;282.20;2278.40;;;;;;5068584;28;20251;-83
2021/10/13 00:19:35;;;;;;;;;;;282.20;2278.40;;;;;;5052101;28;19912;-83
2021/10/13 00:22:01;;;;;;;;;;;282.20;2278.40;;;;;;5068615;28;20449;-83
2021/10/13 00:24:26;;;;;;;;;;;282.20;2278.40;;;;;;5063883;28;19959;-83
2021/10/13 00:26:52;;;;;;;;;;;282.00;2278.40;;;;;;5068369;28;20007;-86
2021/10/13 00:29:18;;;;;;;;;;;282.00;2278.40;;;;;;5068365;28;19975;-83
2021/10/13 00:31:43;;;;;;;;;;;282.00;2278.40;;;;;;5068175;28;19992;-84
2021/10/13 00:34:09;;;;;;;;;;;282.00;2278.40;;;;;;5051220;28;20041;-82
2021/10/13 00:36:34;;;;;;;;;;;282.00;2278.40;;;;;;5068811;28;20064;-82
2021/10/13 00:39:00;;;;;;;;;;;282.00;2278.40;;;;;;5068547;28;19928;-83
2021/10/13 00:41:26;;;;;;;;;;;282.00;2278.40;;;;;;5067937;28;20016;-82
2021/10/13 00:43:51;;;;;;;;;;;282.10;2278.40;;;;;;5068304;28;19912;-84
2021/10/13 00:46:17;;;;;;;;;;;282.10;2278.40;;;;;;5068385;28;20373;-82
2021/10/13 00:48:42;;;;;;;;;;;282.10;2278.40;;;;;;5067378;28;19905;-82
2021/10/13 00:51:09;;;;;;;;;;;282.00;2278.40;;;;;;5034449;28;20274;-82
2021/10/13 00:53:34;;;;;;;;;;;281.80;2278.40;;;;;;5034486;28;19909;-84
2021/10/13 00:56:00;;;;;;;;;;;281.70;2278.40;;;;;;5033950;28;20278;-82
2021/10/13 00:58:25;;;;;;;;;;;281.70;2278.40;;;;;;5035093;28;19913;-81
2021/10/13 01:00:56;;;;;;;;;;;281.90;2278.40;;;;;;5032920;28;20399;-87
2021/10/13 01:03:37;;;;;;;;;;;282.00;2278.40;;;;;;5034484;28;19909;-82
2021/10/13 01:06:02;;;;;;;;;;;282.00;2278.40;;;;;;5067886;28;20266;-82
2021/10/13 01:08:28;;;;;;;;;;;282.00;2278.40;;;;;;5068118;28;20000;-81
2021/10/13 01:11:06;;;;;;;;;;;282.00;2278.40;;;;;;5067112;28;19952;-82
2021/10/13 01:13:37;;;;;;;;;;;282.00;2278.40;;;;;;5067865;28;19905;-82
2021/10/13 01:16:13;;;;;;;;;;;282.00;2278.40;;;;;;5067730;28;20355;-82
2021/10/13 01:18:50;;;;;;;;;;;282.00;2278.40;;;;;;5066988;28;19905;-86
2021/10/13 01:21:19;;;;;;;;;;;282.00;2278.40;;;;;;5063494;28;19913;-82
2021/10/13 01:24:03;;;;;;;;;;;281.90;2278.40;;;;;;5067506;28;19916;-82
2021/10/13 01:26:31;;;;;;;;;;;281.90;2278.40;;;;;;5067389;28;19912;-82
2021/10/13 01:29:01;;;;;;;;;;;281.90;2278.40;;;;;;5050973;28;19955;-82
2021/10/13 01:31:28;;;;;;;;;;;282.00;2278.40;;;;;;5066808;28;19908;-81
2021/10/13 01:33:58;;;;;;;;;;;281.90;2278.40;;;;;;5066550;28;19936;-83
2021/10/13 01:36:27;;;;;;;;;;;281.80;2278.40;;;;;;5034040;28;19944;-83
2021/10/13 01:38:53;;;;;;;;;;;281.80;2278.40;;;;;;5032423;28;19905;-85
2021/10/13 01:41:20;;;;;;;;;;;281.80;2278.40;;;;;;5033892;28;19971;-84
2021/10/13 01:43:48;;;;;;;;;;;281.80;2278.40;;;;;;5034965;28;19956;-82
2021/10/13 01:46:15;;;;;;;;;;;281.80;2278.40;;;;;;5029415;28;19912;-85
2021/10/13 01:48:42;;;;;;;;;;;281.80;2278.40;;;;;;5033305;28;20252;-85
2021/10/13 01:51:07;;;;;;;;;;;281.80;2278.40;;;;;;5032304;28;19932;-81
2021/10/13 01:53:34;;;;;;;;;;;281.70;2278.40;;;;;;5034487;28;20359;-81
2021/10/13 01:56:01;;;;;;;;;;;281.70;2278.40;;;;;;5025897;28;19905;-82
2021/10/13 01:58:28;;;;;;;;;;;281.80;2278.40;;;;;;5034187;28;19913;-81
2021/10/13 02:00:54;;;;;;;;;;;281.70;2278.40;;;;;;5034262;28;19924;-82
2021/10/13 02:03:22;;;;;;;;;;;281.60;2278.40;;;;;;5033050;28;19909;-81
2021/10/13 02:05:53;;;;;;;;;;;256.90;2252.80;;;;;;5066216;28;19912;-82
2021/10/13 02:08:20;;;;;;;;;;;281.60;2278.40;;;;;;5065803;28;19915;-84
2021/10/13 02:10:46;;;;;;;;;;;256.90;2252.80;;;;;;5032882;28;19905;-81
2021/10/13 02:13:12;;;;;;;;;;;281.60;2278.40;;;;;;5032778;28;19905;-81
2021/10/13 02:15:40;;;;;;;;;;;281.60;2278.40;;;;;;5032920;28;19905;-82
2021/10/13 02:18:07;;;;;;;;;;;256.90;2252.80;;;;;;5056192;28;19963;-82
2021/10/13 02:20:32;;;;;;;;;;;256.90;2252.80;;;;;;5028939;28;19908;-83
2021/10/13 02:22:59;;;;;;;;;;;256.80;2252.80;;;;;;5033955;28;19912;-80
2021/10/13 02:25:31;;;;;;;;;;;256.90;2252.80;;;;;;5065850;28;20259;-81
2021/10/13 02:27:58;;;;;;;;;;;256.80;2252.80;;;;;;5033947;28;19909;-82
2021/10/13 02:30:24;;;;;;;;;;;256.70;2252.80;;;;;;5034015;28;19932;-82
2021/10/13 02:32:49;;;;;;;;;;;256.80;2252.80;;;;;;5065412;28;20354;-82
2021/10/13 02:35:15;;;;;;;;;;;256.80;2252.80;;;;;;5032253;28;19912;-82
2021/10/13 02:37:40;;;;;;;;;;;256.80;2252.80;;;;;;5033870;28;19909;-82
2021/10/13 02:40:07;;;;;;;;;;;256.60;2252.80;;;;;;5033734;28;20305;-84
2021/10/13 02:42:33;;;;;;;;;;;256.60;2252.80;;;;;;5033772;28;19995;-84
2021/10/13 02:44:59;;;;;;;;;;;256.60;2252.80;;;;;;5037071;28;19911;-82
2021/10/13 02:47:32;;;;;;;;;;;256.70;2252.80;;;;;;5029951;28;19909;-83
2021/10/13 02:50:04;;;;;;;;;;;256.50;2252.80;;;;;;5030929;28;19909;-83
2021/10/13 02:52:38;;;;;;;;;;;256.50;2252.80;;;;;;5033735;28;19905;-81
2021/10/13 02:55:16;;;;;;;;;;;256.60;2252.80;;;;;;5029991;28;19909;-83
2021/10/13 02:57:46;;;;;;;;;;;256.50;2252.80;;;;;;5026410;28;19913;-82
2021/10/13 03:00:12;;;;;;;;;;;256.50;2252.80;;;;;;5033624;28;19909;-81
2021/10/13 03:03:04;;;;;;;;;;;256.50;2252.80;;;;;;5028911;28;19912;-85
2021/10/13 03:05:30;;;;;;;;;;;256.50;2252.80;;;;;;4987692;28;19967;-82
2021/10/13 03:07:57;;;;;;;;;;;256.40;2252.80;;;;;;4972522;28;19953;-81
2021/10/13 03:10:24;;;;;;;;;;;256.40;2252.80;;;;;;4974643;28;19914;-82
2021/10/13 03:12:51;;;;;;;;;;;256.00;2252.80;;;;;;4983632;28;19953;-82
2021/10/13 03:15:17;;;;;;;;;;;256.10;2252.80;;;;;;4973153;28;20004;-81
2021/10/13 03:17:46;;;;;;;;;;;256.20;2252.80;;;;;;4991550;28;19906;-81
2021/10/13 03:20:14;;;;;;;;;;;256.20;2252.80;;;;;;4991851;28;19909;-82
2021/10/13 03:22:40;;;;;;;;;;;256.00;2252.80;;;;;;4978014;28;19910;-84
2021/10/13 03:25:06;;;;;;;;;;;256.00;2252.80;;;;;;4980441;28;20411;-82
2021/10/13 03:27:32;;;;;;;;;;;256.10;2252.80;;;;;;4972313;28;19914;-84
2021/10/13 03:29:58;;;;;;;;;;;231.30;2252.80;;;;;;4972577;28;19957;-82
2021/10/13 03:32:23;;;;;;;;;;;231.30;2252.80;;;;;;4972168;28;19914;-83
2021/10/13 03:34:49;;;;;;;;;;;231.30;2252.80;;;;;;4972356;28;19906;-82
2021/10/13 03:37:15;;;;;;;;;;;256.00;2252.80;;;;;;4972144;28;19914;-81
2021/10/13 03:39:41;;;;;;;;;;;231.30;2252.80;;;;;;4991730;28;20032;-81
2021/10/13 03:42:07;;;;;;;;;;;231.20;2252.80;;;;;;5006080;28;20015;-81
2021/10/13 03:44:33;;;;;;;;;;;231.30;2252.80;;;;;;5065172;28;19905;-83
2021/10/13 03:46:59;;;;;;;;;;;231.10;2252.80;;;;;;5032014;28;19912;-82
2021/10/13 03:49:25;;;;;;;;;;;231.10;2252.80;;;;;;5031463;28;19909;-81
2021/10/13 03:51:50;;;;;;;;;;;231.10;2252.80;;;;;;5031866;28;20282;-82
2021/10/13 03:54:16;;;;;;;;;;;231.00;2252.80;;;;;;5031473;28;20424;-83
2021/10/13 03:56:41;;;;;;;;;;;231.10;2252.80;;;;;;5031821;28;19905;-83
2021/10/13 03:59:07;;;;;;;;;;;231.20;2252.80;;;;;;5031932;28;19920;-82
2021/10/13 04:01:32;;;;;;;;;;;231.10;2252.80;;;;;;5031938;28;20362;-83
2021/10/13 04:03:58;;;;;;;;;;;231.00;2252.80;;;;;;5031570;28;20366;-82
2021/10/13 04:06:23;;;;;;;;;;;231.00;2252.80;;;;;;5031995;28;19952;-85
2021/10/13 04:08:49;;;;;;;;;;;231.10;2252.80;;;;;;5031472;28;19974;-81
2021/10/13 04:11:15;;;;;;;;;;;231.10;2252.80;;;;;;5031615;28;19909;-82
2021/10/13 04:13:41;;;;;;;;;;;231.00;2252.80;;;;;;5030980;28;19912;-82
2021/10/13 04:16:06;;;;;;;;;;;231.00;2252.80;;;;;;5031418;28;20278;-82
2021/10/13 04:18:32;;;;;;;;;;;231.00;2252.80;;;;;;5032876;28;20386;-82
2021/10/13 04:20:57;;;;;;;;;;;231.10;2252.80;;;;;;5030973;28;20374;-82
2021/10/13 04:23:23;;;;;;;;;;;231.10;2252.80;;;;;;5031686;28;19905;-82
2021/10/13 04:25:48;;;;;;;;;;;231.00;2252.80;;;;;;5031089;28;19913;-82
2021/10/13 04:28:14;;;;;;;;;;;231.00;2252.80;;;;;;5031341;28;20008;-82
2021/10/13 04:30:40;;;;;;;;;;;230.90;2252.80;;;;;;5033934;28;19912;-82
2021/10/13 04:33:05;;;;;;;;;;;231.00;2252.80;;;;;;5034989;28;20354;-83
2021/10/13 04:35:31;;;;;;;;;;;230.90;2252.80;;;;;;5068361;28;19944;-82
2021/10/13 04:37:57;;;;;;;;;;;230.80;2252.80;;;;;;5034930;28;19909;-83
2021/10/13 04:40:22;;;;;;;;;;;230.80;2252.80;;;;;;5068286;28;20278;-86
2021/10/13 04:42:48;;;;;;;;;;;230.70;2252.80;;;;;;5035806;28;19962;-82
2021/10/13 04:45:13;;;;;;;;;;;230.70;2252.80;;;;;;5068212;28;19905;-83
2021/10/13 04:47:39;;;;;;;;;;;230.70;2252.80;;;;;;5068245;28;20000;-82
2021/10/13 04:50:05;;;;;;;;;;;230.70;2252.80;;;;;;5034915;28;19905;-82
2021/10/13 04:52:30;;;;;;;;;;;230.70;2252.80;;;;;;5034746;28;20250;-82
2021/10/13 04:54:56;;;;;;;;;;;230.70;2252.80;;;;;;5034682;28;19912;-84
2021/10/13 04:57:22;;;;;;;;;;;230.60;2252.80;;;;;;5028713;28;19963;-83
2021/10/13 04:59:47;;;;;;;;;;;230.60;2252.80;;;;;;5035037;28;19916;-84
2021/10/13 05:02:13;;;;;;;;;;;230.50;2252.80;;;;;;5027621;28;19917;-85
2021/10/13 05:04:39;;;;;;;;;;;230.50;2252.80;;;;;;5033757;28;19917;-86
2021/10/13 05:07:04;;;;;;;;;;;230.40;2252.80;;;;;;5034293;28;19916;-83
2021/10/13 05:09:30;;;;;;;;;;;205.70;2252.80;;;;;;5033692;28;19905;-89
2021/10/13 05:11:55;;;;;;;;;;;205.70;2252.80;;;;;;5034249;28;20652;-90
2021/10/13 05:14:21;;;;;;;;;;;205.70;2252.80;;;;;;5034448;28;19907;-87
2021/10/13 05:16:46;;;;;;;;;;;205.70;2252.80;;;;;;5034622;28;20385;-87
2021/10/13 05:19:12;;;;;;;;;;;205.70;2252.80;;;;;;5022621;28;19912;-87
2021/10/13 05:21:37;;;;;;;;;;;205.70;2252.80;;;;;;5034747;28;20000;-87
2021/10/13 05:24:04;;;;;;;;;;;205.70;2252.80;;;;;;5034547;28;20351;-87
2021/10/13 05:26:29;;;;;;;;;;;205.60;2252.80;;;;;;5036851;28;19916;-87
2021/10/13 05:28:55;;;;;;;;;;;205.60;2252.80;;;;;;5029141;28;19909;-87
2021/10/13 05:31:21;;;;;;;;;;;205.70;2252.80;;;;;;5037081;28;19908;-87
2021/10/13 05:33:46;;;;;;;;;;;205.60;2252.80;;;;;;5036702;28;20001;-86
2021/10/13 05:36:12;;;;;;;;;;;205.60;2252.80;;;;;;5029791;28;19905;-86
2021/10/13 05:38:38;;;;;;;;;;;205.70;2252.80;;;;;;5037358;28;19912;-86
2021/10/13 05:41:03;;;;;;;;;;;205.70;2252.80;;;;;;5028924;28;19916;-86
2021/10/13 05:43:29;;;;;;;;;;;205.70;2252.80;;;;;;5034009;28;19909;-84
2021/10/13 05:45:55;;;;;;;;;;;230.40;2252.80;;;;;;5036837;28;19959;-85
2021/10/13 05:48:20;;;;;;;;;;;230.40;2252.80;;;;;;5030498;28;19959;-84
2021/10/13 05:50:46;;;;;;;;;;;230.50;2252.80;;;;;;5034114;28;19905;-85
2021/10/13 05:53:12;;;;;;;;;;;230.60;2252.80;;;;;;5033779;28;19905;-84
2021/10/13 05:55:37;;;;;;;;;;;230.50;2252.80;;;;;;5033426;28;19916;-85
2021/10/13 05:58:05;;;;;;;;;;;230.60;2252.80;;;;;;5067369;28;19962;-85
2021/10/13 06:00:31;;;;;;;;;;;230.70;2252.80;;;;;;5033262;28;19909;-86
2021/10/13 06:02:58;;;;;;;;;;;230.70;2252.80;;;;;;5034597;28;19909;-84
2021/10/13 06:05:24;;;;;;;;;;;230.70;2252.80;;;;;;5034392;28;19916;-86
2021/10/13 06:07:50;;;;;;;;;;;230.60;2252.80;;;;;;5066704;28;19905;-82
2021/10/13 06:10:15;;;;;;;;;;;230.60;2252.80;;;;;;5033078;28;19909;-83
2021/10/13 06:12:41;;;;;;;;;;;230.60;2252.80;;;;;;5031981;28;19905;-83
2021/10/13 06:15:07;;;;;;;;;;;230.60;2252.80;;;;;;5065886;28;19905;-87
2021/10/13 06:17:32;;;;;;;;;;;230.60;2252.80;;;;;;5031273;28;19905;-82
2021/10/13 06:19:58;;;;;;;;;;;230.60;2252.80;;;;;;5031022;28;19956;-84
2021/10/13 06:22:24;;;;;;;;;;;230.70;2252.80;;;;;;5023210;28;19913;-81
2021/10/13 06:24:49;;;;;;;;;;;230.90;2252.80;;;;;;5061780;28;19943;-90
2021/10/13 06:27:15;;;;;;;;;;;230.90;2252.80;;;;;;5026598;28;19910;-86
2021/10/13 06:29:40;;;;;;;;;;;230.90;2252.80;;;;;;5057760;28;20335;-83
2021/10/13 06:32:06;;;;;;;;;;;231.00;2252.80;;;;;;5022476;28;19905;-84
2021/10/13 06:34:32;;;;;;;;;;;230.90;2252.80;;;;;;5054837;28;20294;-85
2021/10/13 06:36:57;;;;;;;;;;;231.00;2252.80;;;;;;5032325;28;19913;-83
2021/10/13 06:39:23;;;;;;;;;;;231.10;2252.80;;;;;;5033188;28;19905;-83
2021/10/13 06:41:49;;;;;;;;;;;231.20;2252.80;;;;;;5030654;28;19980;-84
2021/10/13 06:44:14;;;;;;;;;;;231.30;2252.80;;;;;;5043498;28;19915;-84
2021/10/13 06:46:40;;;;;;;;;;;256.00;2252.80;;;;;;5065745;28;19905;-84
2021/10/13 06:49:06;;;;;;;;;;;256.20;2252.80;;;;;;5032327;28;20046;-85
2021/10/13 06:51:31;;;;;;;;;;;256.20;2252.80;;;;;;5032007;28;20279;-85
2021/10/13 06:53:57;;;;;;;;;;;256.30;2252.80;;;;;;5031418;28;19983;-84
2021/10/13 06:56:22;;;;;;;;;;;256.40;2252.80;;;;;;5027265;28;19920;-86
2021/10/13 06:58:48;;;;;;;;;;;256.50;2252.80;;;;;;5032680;28;20275;-83
2021/10/13 07:01:14;;;;;;;;;;;256.60;2252.80;;;;;;5044307;28;20011;-83
2021/10/13 07:03:39;;;;;;;;;;;256.70;2252.80;;;;;;5032532;28;19961;-86
2021/10/13 07:06:05;;;;;;;;;;;256.80;2252.80;;;;;;5023884;28;19911;-83
2021/10/13 07:08:31;;;;;;;;;;;256.60;2252.80;;;;;;5031673;28;19909;-82
2021/10/13 07:10:57;;;;;;;;;;;256.60;2252.80;;;;;;5031567;28;19979;-84
2021/10/13 07:13:22;;;;;;;;;;;256.50;2252.80;;;;;;5030070;28;19996;-84
2021/10/13 07:15:48;;;;;;;;;;;256.50;2252.80;;;;;;5029448;28;20379;-84
2021/10/13 07:18:14;;;;;;;;;;;256.60;2252.80;;;;;;5021517;28;19909;-83
2021/10/13 07:20:40;;;;;;;;;;;256.60;2252.80;;;;;;5054679;28;19909;-84
2021/10/13 07:23:06;;;;;;;;;;;256.60;2252.80;;;;;;5024175;28;19905;-82
2021/10/13 07:25:33;;;;;;;;;;;256.90;2252.80;;;;;;5031959;28;19976;-86
2021/10/13 07:28:00;;;;;;;;;;;256.90;2252.80;;;;;;5032401;28;19913;-82
2021/10/13 07:30:26;;;;;;;;;;;256.90;2252.80;;;;;;5035289;28;20009;-87
2021/10/13 07:32:52;;;;;;;;;;;256.90;2252.80;;;;;;5031996;28;20379;-89
2021/10/13 07:35:19;;;;;;;;;;;256.90;2252.80;;;;;;5034856;28;19991;-83
2021/10/13 07:37:44;;;;;;;;;;;281.60;2278.40;;;;;;5022255;28;19964;-82
2021/10/13 07:40:10;;;;;;;;;;;256.90;2252.80;;;;;;5031812;28;19992;-78
2021/10/13 07:42:36;;;;;;;;;;;281.70;2278.40;;;;;;5066129;28;20441;-85
2021/10/13 07:45:02;;;;;;;;;;;281.70;2278.40;;;;;;5033899;28;20329;-84
2021/10/13 07:47:27;;;;;;;;;;;281.60;2278.40;;;;;;5033480;28;19905;-84
2021/10/13 07:49:53;;;;;;;;;;;281.60;2278.40;;;;;;5030461;28;19948;-88
2021/10/13 07:52:19;;;;;;;;;;;281.70;2278.40;;;;;;5022205;28;19952;-84
2021/10/13 07:54:45;;;;;;;;;;;281.80;2278.40;;;;;;5030651;28;19909;-87
2021/10/13 07:57:10;;;;;;;;;;;281.80;2278.40;;;;;;5018067;28;19913;-83
2021/10/13 07:59:36;;;;;;;;;;;282.40;2278.40;;;;;;5055734;28;19915;-86
2021/10/13 08:02:03;;;;;;;;;;;282.20;2278.40;;;;;;5030552;28;20374;-88
2021/10/13 08:04:29;;;;;;;;;;;282.20;2278.40;;;;;;5024117;28;19917;-88
2021/10/13 08:06:55;;;;;;;;;;;282.30;2278.40;;;;;;5034888;28;19948;-86
2021/10/13 08:09:20;;;;;;;;;;;282.10;2278.40;;;;;;5034146;28;19940;-82
2021/10/13 08:11:46;;;;;;;;;;;282.10;2278.40;;;;;;5034981;28;19915;-85
2021/10/13 08:14:12;;;;;;;;;;;282.20;2278.40;;;;;;5032896;28;20008;-85
2021/10/13 08:16:38;;;;;;;;;;;282.30;2278.40;;;;;;5028420;28;19951;-83
2021/10/13 08:19:04;;;;;;;;;;;282.40;2278.40;;;;;;5035118;28;19905;-84
2021/10/13 08:21:29;;;;;;;;;;;282.50;2278.40;;;;;;5035167;28;19983;-82
2021/10/13 08:23:55;;;;;;;;;;;282.50;2278.40;;;;;;5035128;28;19915;-85
2021/10/13 08:26:21;;;;;;;;;;;307.30;2304.00;;;;;;5024162;28;19909;-84
2021/10/13 08:28:46;;;;;;;;;;;307.30;2304.00;;;;;;5037824;28;19932;-83
2021/10/13 08:31:14;;;;;;;;;;;307.20;2304.00;;;;;;5030911;28;19909;-84
2021/10/13 08:33:40;;;;;;;;;;;307.20;2304.00;;;;;;5035797;28;19960;-84
2021/10/13 08:36:06;;;;;;;;;;;307.40;2304.00;;;;;;5034852;28;20274;-83
2021/10/13 08:38:31;;;;;;;;;;;307.40;2304.00;;;;;;5035370;28;19905;-83
2021/10/13 08:40:57;;;;;;;;;;;307.50;2304.00;;;;;;5035155;28;19919;-82
2021/10/13 08:43:23;;;;;;;;;;;307.60;2304.00;;;;;;5034666;28;19905;-82
2021/10/13 08:45:48;;;;;;;;;;;307.80;2304.00;;;;;;5036305;28;19909;-81
2021/10/13 08:48:14;;;;;;;;;;;307.90;2304.00;;;;;;5036082;28;20154;-83
2021/10/13 08:50:39;;;;;;;;;;;308.00;2304.00;;;;;;5034124;28;19912;-82
2021/10/13 08:53:16;;;;;;;;;;;307.90;2304.00;;;;;;5034820;28;19905;-85
2021/10/13 08:55:43;;;;;;;;;;;308.00;2304.00;;;;;;5028638;28;19916;-81
2021/10/13 08:58:19;;;;;;;;;;;332.80;2329.60;;;;;;5034582;28;19909;-83
2021/10/13 09:00:46;;;;;;;;;;;332.80;2329.60;;;;;;5054693;28;20065;-80
2021/10/13 09:03:28;;;;;;;;;;;332.90;2329.60;;;;;;5033995;28;19916;-82
2021/10/13 09:05:54;;;;;;;;;;;333.10;2329.60;;;;;;5055187;28;19920;-84
2021/10/13 09:08:20;;;;;;;;;;;333.10;2329.60;;;;;;5033367;28;19905;-81
2021/10/13 09:10:46;;;;;;;;;;;333.20;2329.60;;;;;;5034157;28;19905;-82
2021/10/13 09:13:15;;;;;;;;;;;333.20;2329.60;;;;;;5067835;28;19905;-83
2021/10/13 09:15:45;;;;;;;;;;;333.40;2329.60;;;;;;5033588;28;19912;-81
2021/10/13 09:18:11;;;;;;;;;;;333.50;2329.60;;;;;;5034717;28;19909;-81
2021/10/13 09:20:38;;;;;;;;;;;333.60;2329.60;;;;;;5033079;28;20396;-82
2021/10/13 09:23:06;;;;;;;;;;;333.60;2329.60;;;;;;5033905;28;19909;-85
2021/10/13 09:25:32;;;;;;;;;;;333.70;2329.60;;;;;;5027641;28;19960;-83
2021/10/13 09:27:58;;;;;;;;;;;333.70;2329.60;;;;;;5032499;28;19913;-85
2021/10/13 09:30:25;;;;;;;;;;;358.50;2329.60;;;;;;5028064;28;19916;-83
2021/10/13 09:32:50;;;;;;;;;;;358.60;2329.60;;;;;;5032288;28;19951;-85
2021/10/13 09:35:25;;;;;;;;;;;358.60;2329.60;;;;;;5023848;28;19944;-82
2021/10/13 09:37:51;;;;;;;;;;;358.60;2329.60;;;;;;5031257;28;19909;-81
2021/10/13 09:40:27;;;;;;;;;;;358.60;2329.60;;;;;;5034005;28;19911;-86
2021/10/13 09:42:54;;;;;;;;;;;358.60;2329.60;;;;;;5028584;28;19920;-89
2021/10/13 09:45:20;;;;;;;;;;;358.90;2329.60;;;;;;5032066;28;19951;-87
2021/10/13 09:47:45;;;;;;;;;;;359.00;2329.60;;;;;;5033298;28;20329;-89
2021/10/13 09:50:12;;;;;;;;;;;359.00;2329.60;;;;;;5034017;28;19909;-85
2021/10/13 09:52:38;;;;;;;;;;;359.00;2329.60;;;;;;5034030;28;19905;-88
2021/10/13 09:55:10;;;;;;;;;;;358.90;2329.60;;;;;;5024426;28;20282;-89
2021/10/13 09:57:43;;;;;;;;;;;359.00;2329.60;;;;;;5048445;28;20362;-83
2021/10/13 10:00:13;;;;;;;;;;;358.90;2329.60;;;;;;5034258;28;19912;-83
2021/10/13 10:02:38;;;;;;;;;;;359.00;2329.60;;;;;;5024212;28;19920;-89
2021/10/13 10:05:09;;;;;;;;;;;359.00;2329.60;;;;;;5035179;28;19921;-92
2021/10/13 10:07:36;;;;;;;;;;;359.00;2329.60;;;;;;5028402;28;21015;-89
2021/10/13 10:10:06;;;;;;;;;;;359.10;2329.60;;;;;;5034007;28;19916;-90
2021/10/13 10:12:54;;;;;;;;;;;384.00;2329.60;;;;;;5031126;28;19915;-95
2021/10/13 10:15:30;;;;;;;;;;;384.00;2329.60;;;;;;5030422;28;19916;-86
2021/10/13 10:17:56;;;;;;;;;;;359.30;2329.60;;;;;;5030218;28;19912;-87
2021/10/13 10:20:32;;;;;;;;;;;384.30;2329.60;;;;;;5018749;28;20003;-85
2021/10/13 10:22:58;;;;;;;;;;;359.30;2329.60;;;;;;5029046;28;19917;-86
2021/10/13 10:25:33;;;;;;;;;;;384.10;2329.60;;;;;;5024776;28;19908;-87
2021/10/13 10:27:59;;;;;;;;;;;384.00;2329.60;;;;;;5032010;28;19909;-86
2021/10/13 10:30:25;;;;;;;;;;;359.30;2329.60;;;;;;5017947;28;20274;-87
2021/10/13 10:32:53;;;;;;;;;;;384.20;2329.60;;;;;;5028749;28;20003;-86
2021/10/13 10:35:20;;;;;;;;;;;384.20;2329.60;;;;;;5032028;28;20283;-86
2021/10/13 10:37:49;;;;;;;;;;;384.40;2329.60;;;;;;5022657;28;19912;-86
2021/10/13 10:40:21;;;;;;;;;;;384.90;2329.60;;;;;;5026853;28;19911;-86
2021/10/13 10:42:46;;;;;;;;;;;384.90;2329.60;;;;;;5049520;28;19919;-85
2021/10/13 10:45:14;;;;;;;;;;;384.90;2329.60;;;;;;5047711;28;19999;-85
2021/10/13 10:48:06;;;;;;;;;;;384.80;2329.60;;;;;;5032995;28;20354;-86
2021/10/13 10:50:43;;;;;;;;;;;384.60;2329.60;;;;;;5024941;28;19928;-86
2021/10/13 10:53:12;;;;;;;;;;;384.60;2329.60;;;;;;5054992;28;19905;-86
2021/10/13 10:55:39;;;;;;;;;;;409.60;2355.20;;;;;;5049672;28;19999;-85
2021/10/13 10:58:15;;;;;;;;;;;409.90;2355.20;;;;;;5017069;28;19913;-84
2021/10/13 11:00:42;;;;;;;;;;;410.30;2355.20;;;;;;5033147;28;20383;-86
2021/10/13 11:03:25;;;;;;;;;;;409.80;2355.20;;;;;;5033138;28;20321;-84
2021/10/13 11:05:53;;;;;;;;;;;410.10;2355.20;;;;;;5029329;28;19919;-85
2021/10/13 11:08:19;;;;;;;;;;;409.80;2355.20;;;;;;5023776;28;19908;-84
2021/10/13 11:10:44;;;;;;;;;;;409.80;2355.20;;;;;;5032114;28;20452;-83
2021/10/13 11:13:10;;;;;;;;;;;409.80;2355.20;;;;;;5025490;28;19913;-84
2021/10/13 11:15:39;;;;;;;;;;;409.60;2355.20;;;;;;5031831;28;19916;-85
2021/10/13 11:18:11;;;;;;;;;;;384.80;2329.60;;;;;;5010233;28;20408;-83
2021/10/13 11:20:37;;;;;;;;;;;384.60;2329.60;;;;;;5034460;28;19909;-82
2021/10/13 11:23:04;;;;;;;;;;;384.40;2329.60;;;;;;5032132;28;20381;-86
2021/10/13 11:25:30;;;;;;;;;;;384.30;2329.60;;;;;;5064927;28;19909;-84
2021/10/13 11:28:00;;;;;;;;;;;384.50;2329.60;;;;;;5032690;28;19913;-85
2021/10/13 11:30:28;;;;;;;;;;;384.70;2329.60;;;;;;5026283;28;20025;-81
2021/10/13 11:32:53;;;;;;;;;;;384.40;2329.60;;;;;;5057313;28;19909;-77
2021/10/13 11:35:19;;;;;;;;;;;384.20;2329.60;;;;;;5034095;28;19976;-84
2021/10/13 11:37:52;;;;;;;;;;;384.10;2329.60;;;;;;5032934;28;19920;-84
2021/10/13 11:40:19;;;;;;;;;;;384.10;2329.60;;;;;;5035303;28;20281;-86
2021/10/13 11:42:45;;;;;;;;;;;384.10;2329.60;;;;;;5030361;28;19921;-86
2021/10/13 11:45:15;;;;;;;;;;;409.60;2355.20;;;;;;5036188;28;20277;-85
2021/10/13 11:47:40;;;;;;;;;;;410.20;2355.20;;;;;;5030865;28;19912;-87
2021/10/13 11:50:07;;;;;;;;;;;410.00;2355.20;;;;;;5035423;28;19909;-83
2021/10/13 11:52:35;;;;;;;;;;;384.90;2329.60;;;;;;5034090;28;20404;-83
2021/10/13 11:55:08;;;;;;;;;;;384.70;2329.60;;;;;;5031862;28;19963;-76
2021/10/13 11:57:35;;;;;;;;;;;384.60;2329.60;;;;;;5036640;28;20406;-81
2021/10/13 12:00:16;;;;;;;;;;;384.40;2329.60;;;;;;5036005;28;19905;-85
2021/10/13 12:02:55;;;;;;;;;;;384.40;2329.60;;;;;;5022877;28;19917;-84
2021/10/13 12:05:27;;;;;;;;;;;384.10;2329.60;;;;;;5015035;28;19917;-86
2021/10/13 12:07:59;;;;;;;;;;;384.00;2329.60;;;;;;5013027;28;19924;-92
2021/10/13 12:10:32;;;;;;;;;;;359.30;2329.60;;;;;;5036894;28;20099;-87
2021/10/13 12:13:06;;;;;;;;;;;384.00;2329.60;;;;;;5019242;28;19920;-86
2021/10/13 12:15:31;;;;;;;;;;;384.30;2329.60;;;;;;5015366;28;19928;-85
2021/10/13 12:18:09;;;;;;;;;;;384.30;2329.60;;;;;;5018835;28;19913;-86
2021/10/13 12:20:35;;;;;;;;;;;384.10;2329.60;;;;;;5037182;28;19909;-85
2021/10/13 12:23:08;;;;;;;;;;;384.00;2329.60;;;;;;5037368;28;19912;-92
2021/10/13 12:25:34;;;;;;;;;;;384.00;2329.60;;;;;;5037341;28;19916;-85
2021/10/13 12:28:00;;;;;;;;;;;359.30;2329.60;;;;;;5019493;28;20008;-85
2021/10/13 12:30:30;;;;;;;;;;;359.10;2329.60;;;;;;5019231;28;19940;-83
2021/10/13 12:33:09;;;;;;;;;;;358.90;2329.60;;;;;;5018571;28;19909;-86
2021/10/13 12:35:35;;;;;;;;;;;358.80;2329.60;;;;;;5019214;28;19992;-88
2021/10/13 12:38:02;;;;;;;;;;;358.50;2329.60;;;;;;5018348;28;19905;-83
2021/10/13 12:40:27;;;;;;;;;;;333.70;2329.60;;;;;;5018562;28;20419;-85
2021/10/13 12:42:55;;;;;;;;;;;333.70;2329.60;;;;;;5018373;28;20007;-83
2021/10/13 12:45:24;;;;;;;;;;;358.40;2329.60;;;;;;5018179;28;19905;-90
2021/10/13 12:47:50;;;;;;;;;;;333.70;2329.60;;;;;;5018454;28;19905;-89
2021/10/13 12:50:18;;;;;;;;;;;333.70;2329.60;;;;;;5018008;28;20450;-85
2021/10/13 12:52:43;;;;;;;;;;;333.30;2329.60;;;;;;5017960;28;19948;-85
2021/10/13 12:55:09;;;;;;;;;;;333.10;2329.60;;;;;;5018577;28;19952;-86
2021/10/13 12:57:35;;;;;;;;;;;333.10;2329.60;;;;;;5018508;28;19913;-91
2021/10/13 13:00:00;;;;;;;;;;;333.10;2329.60;;;;;;5015252;28;20346;-87
2021/10/13 13:02:26;;;;;;;;;;;333.00;2329.60;;;;;;5018523;28;19917;-89
2021/10/13 13:04:53;;;;;;;;;;;333.10;2329.60;;;;;;5017462;28;19917;-84
2021/10/13 13:07:19;;;;;;;;;;;333.00;2329.60;;;;;;5017768;28;19916;-83
2021/10/13 13:09:45;;;;;;;;;;;333.00;2329.60;;;;;;5017398;28;19905;-89
2021/10/13 13:12:11;;;;;;;;;;;333.00;2329.60;;;;;;5017554;28;19955;-86
2021/10/13 13:14:37;;;;;;;;;;;333.10;2329.60;;;;;;5017367;28;19905;-86
2021/10/13 13:17:07;;;;;;;;;;;333.20;2329.60;;;;;;5017404;28;19912;-86
2021/10/13 13:19:33;;;;;;;;;;;333.20;2329.60;;;;;;5035511;28;19909;-84
2021/10/13 13:21:58;;;;;;;;;;;333.20;2329.60;;;;;;5017948;28;20393;-84
2021/10/13 13:24:24;;;;;;;;;;;333.30;2329.60;;;;;;5017469;28;19988;-85
2021/10/13 13:26:50;;;;;;;;;;;333.30;2329.60;;;;;;5014656;28;19959;-84
2021/10/13 13:29:16;;;;;;;;;;;333.40;2329.60;;;;;;5017254;28;20390;-82
2021/10/13 13:31:42;;;;;;;;;;;333.50;2329.60;;;;;;5017415;28;19909;-83
2021/10/13 13:34:07;;;;;;;;;;;333.30;2329.60;;;;;;5017878;28;19912;-85
2021/10/13 13:36:33;;;;;;;;;;;333.30;2329.60;;;;;;5034593;28;19927;-85
2021/10/13 13:38:58;;;;;;;;;;;333.50;2329.60;;;;;;5034720;28;19951;-82
2021/10/13 13:41:24;;;;;;;;;;;333.50;2329.60;;;;;;5016611;28;19981;-82